• Join FlightAware (Why Join?)
  • Login
  • US Flag GB Flag 
16:19 EDT


 

Airport Tracker/Info


-or-


 

Live Flight TrackerFlight Track Log ✈ AWE1693 ✈ 29-Jun-2013 ✈ KCLT - KTPA

Flight Track Log - Related Links

Times and Time Zones

All times are in EDT time to prevent confusion due to time zone crossing. See the AWE1693 flight status page for this flight to view local times or setup timezone preferences in your user account.

Time Position Orientation Groundspeed Altitude Reporting Facility
EDT Latitude Longitude Course Direction KTS MPH feet Rate Location/Type
12:15 35.1908 -80.9356 193° South 168 193 1,500  Level Atlanta Center
12:16 35.1553 -80.9319 175° South 165 190 2,900 1,800 Climbing Atlanta Center
12:17 35.0903 -80.9192 171° South 249 287 4,900 2,460 Climbing Atlanta Center
12:18 34.7121 -81.0675 180° South  Level Estimated
12:18 34.9844 -80.8572 154° Southeast 289 333 9,000  Level Atlanta Center
12:19 34.5866 -81.0969 165° South  Level Estimated
12:19 34.9128 -80.8294 162° South 289 333 11,900  Level Atlanta Center
12:20 34.4612 -81.1262 193° South  Level Estimated
12:20 34.8319 -80.8528 193° South 279 321 14,600  Level Atlanta Center
12:22 34.6614 -80.8961 192° South 317 365 18,300 1,620 Climbing Jacksonville Center
12:23 34.5508 -80.8936 179° South 346 398 19,800 1,380 Climbing Jacksonville Center
12:24 34.4406 -80.9086 186° South 378 435 21,200 1,500 Climbing Jacksonville Center
12:25 34.3281 -80.9214 185° South 400 460 22,800 1,560 Climbing Jacksonville Center
12:26 34.2322 -80.9336 186° South 406 467 24,300 1,500 Climbing Jacksonville Center
12:27 34.1178 -80.9486 186° South 412 474 25,800 1,440 Climbing Jacksonville Center
12:28 34.0033 -80.9761 191° South 417 480 27,200 1,500 Climbing Jacksonville Center
12:29 33.8853 -81.0389 204° Southwest 422 486 28,900 1,320 Climbing Jacksonville Center
12:30 33.7714 -81.0911 201° Southwest 422 486 29,900 540 Climbing Jacksonville Center
12:31 33.6739 -81.1406 203° Southwest 428 493 30,000 120 Climbing Jacksonville Center
12:32 33.5622 -81.1975 203° Southwest 433 498 30,200 600 Climbing Jacksonville Center
12:33 33.4500 -81.2519 202° Southwest 433 498 31,200 900 Climbing Jacksonville Center
12:34 33.3381 -81.3064 202° Southwest 433 498 32,000 360 Climbing Jacksonville Center
12:35 33.2281 -81.3628 203° Southwest 433 498 32,000  Level Jacksonville Center
12:36 33.1183 -81.4169 202° Southwest 433 498 32,000  Level Jacksonville Center
12:37 32.9917 -81.4758 201° Southwest 433 498 32,000  Level Jacksonville Center
12:38 32.8817 -81.5319 203° Southwest 433 498 32,000  Level Jacksonville Center
12:39 32.7694 -81.5856 202° Southwest 433 498 32,000  Level Jacksonville Center
12:40 32.6675 -81.6364 203° Southwest 433 498 32,000  Level Jacksonville Center
12:41 32.5450 -81.6972 203° Southwest 433 498 32,000  Level Jacksonville Center
12:42 32.4456 -81.7775 214° Southwest 433 498 32,000  Level Jacksonville Center
12:43 32.3794 -81.8742 231° Southwest 425 489 32,000  Level Jacksonville Center
12:44 32.2928 -81.9931 229° Southwest 436 502 32,000  Level Jacksonville Center
12:45 32.2267 -82.0869 230° Southwest 430 495 32,000  Level Jacksonville Center
12:46 32.1417 -82.2081 230° Southwest 430 495 32,000  Level Jacksonville Center
12:47 32.0650 -82.3139 229° Southwest 437 503 32,000  Level Jacksonville Center
12:48 31.9986 -82.4100 231° Southwest 432 497 32,000  Level Jacksonville Center
12:49 31.9175 -82.5181 229° Southwest 427 491 32,000  Level Jacksonville Center
12:50 31.8406 -82.6261 230° Southwest 427 491 32,000  Level Jacksonville Center
12:51 31.7636 -82.7339 230° Southwest 432 497 32,000  Level Jacksonville Center
12:52 31.6864 -82.8414 230° Southwest 432 497 32,000 -60 Level Jacksonville Center
12:53 31.6092 -82.9464 229° Southwest 432 497 31,900 -540 Descending Jacksonville Center
12:54 31.5067 -83.0217 212° Southwest 431 496 31,000 -960 Descending Jacksonville Center
12:55 31.3939 -83.0775 203° Southwest 436 502 30,000 -1,020 Descending Jacksonville Center
12:56 31.2853 -83.1358 205° Southwest 430 495 29,000 -540 Descending Jacksonville Center
12:57 31.1764 -83.1936 204° Southwest 425 489 29,000 -180 Level Jacksonville Center
12:58 31.0700 -83.2492 204° Southwest 425 489 28,700 -660 Descending Jacksonville Center
12:59 30.9633 -83.3044 204° Southwest 420 483 27,700 -960 Descending Jacksonville Center
13:00 30.8586 -83.3619 205° Southwest 420 483 26,800 -1,620 Descending Jacksonville Center
13:01 30.7603 -83.4122 204° Southwest 415 478 24,500 -1,980 Descending Jacksonville Center
13:02 30.6517 -83.4456 195° South 410 472 22,900 -780 Descending Jacksonville Center
13:03 30.5431 -83.4039 162° South 385 443 23,000  Climbing Jacksonville Center
13:04 30.4328 -83.3622 162° South 398 458 23,000  Level Jacksonville Center
13:05 30.3283 -83.3208 161° South 403 464 23,000  Level Jacksonville Center
13:06 30.2158 -83.2794 162° South 403 464 23,000  Level Jacksonville Center
13:07 30.1094 -83.2408 163° South 403 464 23,000  Level Jacksonville Center
13:08 29.9883 -83.2211 172° South 403 464 23,000  Level Jacksonville Center
13:09 29.8714 -83.2281 183° South 415 478 23,000 -600 Level Jacksonville Center
13:10 29.7586 -83.2372 184° South 410 472 21,800 -1,740 Descending Jacksonville Center
13:11 29.6544 -83.2414 182° South 396 456 19,600 -2,280 Descending Jacksonville Center
13:12 29.5458 -83.2483 183° South 389 448 17,300 -1,380 Descending Jacksonville Center
13:13 29.4392 -83.2525 182° South 384 442 16,900 -240 Descending Jacksonville Center
13:14 29.3328 -83.2569 182° South 384 442 16,900  Level Jacksonville Center
13:15 29.2283 -83.2614 182° South 384 442 16,900  Level Jacksonville Center
13:16 29.1283 -83.2681 183° South 384 442 16,900  Level Jacksonville Center
13:17 29.0239 -83.2725 182° South 379 436 16,900  Level Jacksonville Center
13:18 28.9217 -83.2531 171° South 379 436 16,900  Level Jacksonville Center
13:19 28.8258 -83.2031 155° Southeast 368 423 16,900 -540 Level Jacksonville Center
13:21 28.6500 -83.1167 157° South 375 432 15,400 -960 Descending Tampa TRACON
13:22 28.5667 -83.0833 161° South 368 423 14,400 -1,020 Descending Tampa TRACON
13:23 28.4667 -83.0333 156° South 354 407 13,500 -900 Descending Tampa TRACON
13:24 28.4000 -82.9833 147° Southeast 308 354 12,600 -1,440 Descending Tampa TRACON
13:25 28.3333 -82.9333 147° Southeast 301 346 10,700 -2,220 Descending Tampa TRACON
13:26 28.3167 -82.8333 101° East 299 344 8,200 -2,340 Descending Tampa TRACON
13:27 28.3000 -82.7500 103° East 296 341 6,100 -1,500 Descending Tampa TRACON
13:28 28.2667 -82.6667 114° Southeast 259 298 5,200 -1,020 Descending Tampa TRACON
13:29 28.2167 -82.6167 139° Southeast 241 277 4,100 -960 Descending Tampa TRACON
13:30 28.1833 -82.5667 127° Southeast 213 245 3,300 -840 Descending Tampa TRACON